Terminal Aerodrome Forecast
Issued by NWS Twin Cities, MN

Home | Current Version | Previous Version | Text Only | Print | Product List | Glossary On
Versions: 1 2 3 4 5 6 7 8 9 10 11 12 13 14 15 16 17
000
FTUS43 KMPX 281737
TAFSTC
TAF
KSTC 281737Z 2818/2918 18014G24KT P6SM SCT060 BKN200
     FM290100 18008KT P6SM BKN100
     FM290800 17004KT P6SM VCSH OVC070
     FM291400 30007KT 4SM -TSRA BR OVC018CB=

USA.gov is the U.S. government's official web portal to all federal, state and local government web resources and services.